sensor_id;sensor_type;location;lat;lon;timestamp;P1;durP1;ratioP1;P2;durP2;ratioP2
27792;SDS011;15174;48.190;11.462;2024-02-21T00:00:00;4.60;;;2.08;;
27792;SDS011;15174;48.190;11.462;2024-02-21T00:02:46;2.80;;;1.95;;
27792;SDS011;15174;48.190;11.462;2024-02-21T00:05:13;5.43;;;2.20;;
27792;SDS011;15174;48.190;11.462;2024-02-21T00:07:40;9.10;;;2.35;;
27792;SDS011;15174;48.190;11.462;2024-02-21T00:10:07;5.22;;;2.58;;
27792;SDS011;15174;48.190;11.462;2024-02-21T00:12:34;10.53;;;2.13;;
27792;SDS011;15174;48.190;11.462;2024-02-21T00:15:02;8.20;;;2.70;;
27792;SDS011;15174;48.190;11.462;2024-02-21T00:17:28;4.32;;;2.20;;
27792;SDS011;15174;48.190;11.462;2024-02-21T00:19:55;6.13;;;1.83;;
27792;SDS011;15174;48.190;11.462;2024-02-21T00:22:21;7.82;;;1.83;;
27792;SDS011;15174;48.190;11.462;2024-02-21T00:24:47;6.30;;;2.15;;
27792;SDS011;15174;48.190;11.462;2024-02-21T00:27:13;11.50;;;2.50;;
27792;SDS011;15174;48.190;11.462;2024-02-21T00:29:39;4.30;;;2.25;;
27792;SDS011;15174;48.190;11.462;2024-02-21T00:32:05;7.93;;;2.47;;
27792;SDS011;15174;48.190;11.462;2024-02-21T00:34:31;9.45;;;2.33;;
27792;SDS011;15174;48.190;11.462;2024-02-21T00:36:57;10.02;;;2.08;;
27792;SDS011;15174;48.190;11.462;2024-02-21T00:39:23;7.22;;;2.03;;
27792;SDS011;15174;48.190;11.462;2024-02-21T00:41:49;5.78;;;2.25;;
27792;SDS011;15174;48.190;11.462;2024-02-21T00:44:16;6.88;;;1.83;;
27792;SDS011;15174;48.190;11.462;2024-02-21T00:46:42;8.63;;;2.22;;
27792;SDS011;15174;48.190;11.462;2024-02-21T00:49:08;4.95;;;2.10;;
27792;SDS011;15174;48.190;11.462;2024-02-21T00:51:34;3.97;;;1.92;;
27792;SDS011;15174;48.190;11.462;2024-02-21T00:54:00;4.70;;;1.90;;
27792;SDS011;15174;48.190;11.462;2024-02-21T00:56:26;6.03;;;2.20;;
27792;SDS011;15174;48.190;11.462;2024-02-21T00:58:53;3.08;;;1.60;;
27792;SDS011;15174;48.190;11.462;2024-02-21T01:01:22;6.88;;;2.22;;
27792;SDS011;15174;48.190;11.462;2024-02-21T01:03:48;8.43;;;1.88;;
27792;SDS011;15174;48.190;11.462;2024-02-21T01:06:15;6.57;;;2.47;;
27792;SDS011;15174;48.190;11.462;2024-02-21T01:08:41;4.15;;;1.98;;
27792;SDS011;15174;48.190;11.462;2024-02-21T01:11:07;10.95;;;1.85;;
27792;SDS011;15174;48.190;11.462;2024-02-21T01:13:33;8.23;;;2.17;;
27792;SDS011;15174;48.190;11.462;2024-02-21T01:15:59;2.13;;;1.45;;
27792;SDS011;15174;48.190;11.462;2024-02-21T01:18:25;9.95;;;2.00;;
27792;SDS011;15174;48.190;11.462;2024-02-21T01:20:51;17.27;;;2.50;;
27792;SDS011;15174;48.190;11.462;2024-02-21T01:23:17;13.35;;;2.28;;
27792;SDS011;15174;48.190;11.462;2024-02-21T01:25:43;4.07;;;1.60;;
27792;SDS011;15174;48.190;11.462;2024-02-21T01:28:09;2.17;;;1.85;;
27792;SDS011;15174;48.190;11.462;2024-02-21T01:30:35;4.68;;;1.85;;
27792;SDS011;15174;48.190;11.462;2024-02-21T01:33:02;6.00;;;1.75;;
27792;SDS011;15174;48.190;11.462;2024-02-21T01:35:28;5.10;;;2.13;;
27792;SDS011;15174;48.190;11.462;2024-02-21T01:37:54;8.00;;;1.55;;
27792;SDS011;15174;48.190;11.462;2024-02-21T01:40:20;1.85;;;1.45;;
27792;SDS011;15174;48.190;11.462;2024-02-21T01:42:46;11.00;;;1.95;;
27792;SDS011;15174;48.190;11.462;2024-02-21T01:45:14;9.27;;;2.00;;
27792;SDS011;15174;48.190;11.462;2024-02-21T01:47:40;5.88;;;1.60;;
27792;SDS011;15174;48.190;11.462;2024-02-21T01:50:06;4.68;;;2.08;;
27792;SDS011;15174;48.190;11.462;2024-02-21T01:52:32;9.45;;;1.98;;
27792;SDS011;15174;48.190;11.462;2024-02-21T01:57:26;8.35;;;1.65;;
27792;SDS011;15174;48.190;11.462;2024-02-21T01:59:54;3.03;;;1.60;;
27792;SDS011;15174;48.190;11.462;2024-02-21T02:02:20;8.32;;;2.60;;
27792;SDS011;15174;48.190;11.462;2024-02-21T02:04:46;5.10;;;1.75;;
27792;SDS011;15174;48.190;11.462;2024-02-21T02:07:12;5.82;;;1.58;;
27792;SDS011;15174;48.190;11.462;2024-02-21T02:09:38;4.95;;;1.77;;
27792;SDS011;15174;48.190;11.462;2024-02-21T02:12:04;6.28;;;2.03;;
27792;SDS011;15174;48.190;11.462;2024-02-21T02:14:31;4.32;;;1.70;;
27792;SDS011;15174;48.190;11.462;2024-02-21T02:16:57;5.05;;;1.98;;
27792;SDS011;15174;48.190;11.462;2024-02-21T02:19:23;5.25;;;1.67;;
27792;SDS011;15174;48.190;11.462;2024-02-21T02:21:49;2.03;;;1.40;;
27792;SDS011;15174;48.190;11.462;2024-02-21T02:24:19;3.63;;;1.52;;
27792;SDS011;15174;48.190;11.462;2024-02-21T02:26:45;5.87;;;1.77;;
27792;SDS011;15174;48.190;11.462;2024-02-21T02:29:11;3.78;;;1.52;;
27792;SDS011;15174;48.190;11.462;2024-02-21T02:31:37;6.25;;;1.75;;
27792;SDS011;15174;48.190;11.462;2024-02-21T02:34:03;9.77;;;2.13;;
27792;SDS011;15174;48.190;11.462;2024-02-21T02:36:33;6.07;;;1.42;;
27792;SDS011;15174;48.190;11.462;2024-02-21T02:38:59;6.72;;;1.98;;
27792;SDS011;15174;48.190;11.462;2024-02-21T02:41:25;4.28;;;1.75;;
27792;SDS011;15174;48.190;11.462;2024-02-21T02:43:51;5.07;;;1.92;;
27792;SDS011;15174;48.190;11.462;2024-02-21T02:46:17;5.97;;;2.20;;
27792;SDS011;15174;48.190;11.462;2024-02-21T02:48:43;3.78;;;1.40;;
27792;SDS011;15174;48.190;11.462;2024-02-21T02:51:10;8.38;;;1.73;;
27792;SDS011;15174;48.190;11.462;2024-02-21T02:53:36;10.73;;;1.40;;
27792;SDS011;15174;48.190;11.462;2024-02-21T02:56:02;4.05;;;1.63;;
27792;SDS011;15174;48.190;11.462;2024-02-21T02:58:28;6.03;;;1.80;;
27792;SDS011;15174;48.190;11.462;2024-02-21T03:00:54;3.92;;;1.42;;
27792;SDS011;15174;48.190;11.462;2024-02-21T03:03:20;5.82;;;1.65;;
27792;SDS011;15174;48.190;11.462;2024-02-21T03:05:46;2.47;;;1.38;;
27792;SDS011;15174;48.190;11.462;2024-02-21T03:08:12;7.25;;;2.30;;
27792;SDS011;15174;48.190;11.462;2024-02-21T03:10:38;10.63;;;1.85;;
27792;SDS011;15174;48.190;11.462;2024-02-21T03:13:04;4.10;;;1.70;;
27792;SDS011;15174;48.190;11.462;2024-02-21T03:15:30;3.78;;;1.58;;
27792;SDS011;15174;48.190;11.462;2024-02-21T03:17:56;10.20;;;1.83;;
27792;SDS011;15174;48.190;11.462;2024-02-21T03:20:22;8.63;;;1.58;;
27792;SDS011;15174;48.190;11.462;2024-02-21T03:22:48;2.97;;;1.42;;
27792;SDS011;15174;48.190;11.462;2024-02-21T03:25:14;2.88;;;1.30;;
27792;SDS011;15174;48.190;11.462;2024-02-21T03:27:40;1.58;;;1.33;;
27792;SDS011;15174;48.190;11.462;2024-02-21T03:30:07;2.17;;;1.27;;
27792;SDS011;15174;48.190;11.462;2024-02-21T03:32:33;2.58;;;1.23;;
27792;SDS011;15174;48.190;11.462;2024-02-21T03:35:00;3.60;;;1.45;;
27792;SDS011;15174;48.190;11.462;2024-02-21T03:37:26;4.07;;;1.45;;
27792;SDS011;15174;48.190;11.462;2024-02-21T03:39:52;3.20;;;1.42;;
27792;SDS011;15174;48.190;11.462;2024-02-21T03:42:18;3.35;;;1.52;;
27792;SDS011;15174;48.190;11.462;2024-02-21T03:44:44;5.78;;;1.50;;
27792;SDS011;15174;48.190;11.462;2024-02-21T03:47:10;4.10;;;1.50;;
27792;SDS011;15174;48.190;11.462;2024-02-21T03:49:36;3.20;;;1.20;;
27792;SDS011;15174;48.190;11.462;2024-02-21T03:52:03;1.45;;;1.20;;
27792;SDS011;15174;48.190;11.462;2024-02-21T03:54:29;1.95;;;1.30;;
27792;SDS011;15174;48.190;11.462;2024-02-21T03:56:55;4.72;;;1.45;;
27792;SDS011;15174;48.190;11.462;2024-02-21T03:59:22;4.45;;;1.42;;
27792;SDS011;15174;48.190;11.462;2024-02-21T04:01:51;4.30;;;1.25;;
27792;SDS011;15174;48.190;11.462;2024-02-21T04:04:17;3.03;;;1.10;;
27792;SDS011;15174;48.190;11.462;2024-02-21T04:06:47;1.73;;;1.25;;
27792;SDS011;15174;48.190;11.462;2024-02-21T04:09:13;3.35;;;1.63;;
27792;SDS011;15174;48.190;11.462;2024-02-21T04:11:39;6.72;;;1.90;;
27792;SDS011;15174;48.190;11.462;2024-02-21T04:14:05;4.40;;;1.60;;
27792;SDS011;15174;48.190;11.462;2024-02-21T04:16:32;6.53;;;1.80;;
27792;SDS011;15174;48.190;11.462;2024-02-21T04:18:58;3.72;;;1.35;;
27792;SDS011;15174;48.190;11.462;2024-02-21T04:21:24;4.50;;;1.75;;
27792;SDS011;15174;48.190;11.462;2024-02-21T04:23:50;4.78;;;1.58;;
27792;SDS011;15174;48.190;11.462;2024-02-21T04:26:16;5.38;;;1.58;;
27792;SDS011;15174;48.190;11.462;2024-02-21T04:28:44;2.30;;;1.30;;
27792;SDS011;15174;48.190;11.462;2024-02-21T04:31:10;1.92;;;1.17;;
27792;SDS011;15174;48.190;11.462;2024-02-21T04:33:36;6.00;;;1.45;;
27792;SDS011;15174;48.190;11.462;2024-02-21T04:36:02;6.43;;;1.50;;
27792;SDS011;15174;48.190;11.462;2024-02-21T04:38:30;3.45;;;1.33;;
27792;SDS011;15174;48.190;11.462;2024-02-21T04:40:56;3.95;;;1.17;;
27792;SDS011;15174;48.190;11.462;2024-02-21T04:43:24;4.03;;;1.27;;
27792;SDS011;15174;48.190;11.462;2024-02-21T04:45:50;4.28;;;1.40;;
27792;SDS011;15174;48.190;11.462;2024-02-21T04:48:18;3.10;;;1.65;;
27792;SDS011;15174;48.190;11.462;2024-02-21T04:50:44;5.05;;;1.40;;
27792;SDS011;15174;48.190;11.462;2024-02-21T04:53:10;4.00;;;1.42;;
27792;SDS011;15174;48.190;11.462;2024-02-21T04:55:35;3.22;;;1.58;;
27792;SDS011;15174;48.190;11.462;2024-02-21T04:58:01;5.72;;;1.60;;
27792;SDS011;15174;48.190;11.462;2024-02-21T05:00:28;1.30;;;1.20;;
27792;SDS011;15174;48.190;11.462;2024-02-21T05:02:54;3.42;;;1.35;;
27792;SDS011;15174;48.190;11.462;2024-02-21T05:05:20;2.95;;;1.35;;
27792;SDS011;15174;48.190;11.462;2024-02-21T05:07:45;1.15;;;0.90;;
27792;SDS011;15174;48.190;11.462;2024-02-21T05:10:11;6.40;;;1.50;;
27792;SDS011;15174;48.190;11.462;2024-02-21T05:12:37;3.33;;;1.25;;
27792;SDS011;15174;48.190;11.462;2024-02-21T05:15:03;3.90;;;1.58;;
27792;SDS011;15174;48.190;11.462;2024-02-21T05:17:29;6.22;;;1.55;;
27792;SDS011;15174;48.190;11.462;2024-02-21T05:19:55;5.90;;;1.63;;
27792;SDS011;15174;48.190;11.462;2024-02-21T05:22:21;7.20;;;1.30;;
27792;SDS011;15174;48.190;11.462;2024-02-21T05:24:46;1.75;;;1.33;;
27792;SDS011;15174;48.190;11.462;2024-02-21T05:27:12;11.13;;;1.50;;
27792;SDS011;15174;48.190;11.462;2024-02-21T05:29:38;3.70;;;1.15;;
27792;SDS011;15174;48.190;11.462;2024-02-21T05:32:03;5.18;;;1.20;;
27792;SDS011;15174;48.190;11.462;2024-02-21T05:34:29;4.60;;;1.15;;
27792;SDS011;15174;48.190;11.462;2024-02-21T05:36:55;1.83;;;1.02;;
27792;SDS011;15174;48.190;11.462;2024-02-21T05:39:22;1.27;;;0.95;;
27792;SDS011;15174;48.190;11.462;2024-02-21T05:41:49;2.63;;;1.20;;
27792;SDS011;15174;48.190;11.462;2024-02-21T05:44:18;4.65;;;1.40;;
27792;SDS011;15174;48.190;11.462;2024-02-21T05:46:44;5.28;;;1.52;;
27792;SDS011;15174;48.190;11.462;2024-02-21T05:49:10;1.42;;;0.90;;
27792;SDS011;15174;48.190;11.462;2024-02-21T05:51:36;5.20;;;1.20;;
27792;SDS011;15174;48.190;11.462;2024-02-21T05:54:01;1.45;;;0.90;;
27792;SDS011;15174;48.190;11.462;2024-02-21T05:56:27;3.03;;;1.00;;
27792;SDS011;15174;48.190;11.462;2024-02-21T05:58:54;2.05;;;1.05;;
27792;SDS011;15174;48.190;11.462;2024-02-21T06:01:20;2.20;;;1.40;;
27792;SDS011;15174;48.190;11.462;2024-02-21T06:03:48;3.05;;;1.35;;
27792;SDS011;15174;48.190;11.462;2024-02-21T06:06:14;4.05;;;1.35;;
27792;SDS011;15174;48.190;11.462;2024-02-21T06:08:40;2.08;;;1.52;;
27792;SDS011;15174;48.190;11.462;2024-02-21T06:11:06;2.83;;;1.70;;
27792;SDS011;15174;48.190;11.462;2024-02-21T06:13:32;6.32;;;2.25;;
27792;SDS011;15174;48.190;11.462;2024-02-21T06:15:57;4.03;;;1.80;;
27792;SDS011;15174;48.190;11.462;2024-02-21T06:18:23;5.05;;;1.58;;
27792;SDS011;15174;48.190;11.462;2024-02-21T06:20:48;5.60;;;1.92;;
27792;SDS011;15174;48.190;11.462;2024-02-21T06:23:15;2.17;;;1.10;;
27792;SDS011;15174;48.190;11.462;2024-02-21T06:25:44;2.72;;;1.20;;
27792;SDS011;15174;48.190;11.462;2024-02-21T06:28:10;3.55;;;1.65;;
27792;SDS011;15174;48.190;11.462;2024-02-21T06:30:35;2.50;;;1.70;;
27792;SDS011;15174;48.190;11.462;2024-02-21T06:33:01;11.85;;;2.05;;
27792;SDS011;15174;48.190;11.462;2024-02-21T06:35:28;7.95;;;2.40;;
27792;SDS011;15174;48.190;11.462;2024-02-21T06:37:54;3.22;;;2.10;;
27792;SDS011;15174;48.190;11.462;2024-02-21T06:40:22;4.30;;;1.58;;
27792;SDS011;15174;48.190;11.462;2024-02-21T06:42:49;6.18;;;1.27;;
27792;SDS011;15174;48.190;11.462;2024-02-21T06:45:15;1.67;;;1.17;;
27792;SDS011;15174;48.190;11.462;2024-02-21T06:47:41;3.45;;;1.50;;
27792;SDS011;15174;48.190;11.462;2024-02-21T06:50:07;8.73;;;1.10;;
27792;SDS011;15174;48.190;11.462;2024-02-21T06:52:33;2.92;;;1.08;;
27792;SDS011;15174;48.190;11.462;2024-02-21T06:54:59;6.93;;;0.90;;
27792;SDS011;15174;48.190;11.462;2024-02-21T06:57:25;2.40;;;0.90;;
27792;SDS011;15174;48.190;11.462;2024-02-21T06:59:51;2.33;;;1.20;;
27792;SDS011;15174;48.190;11.462;2024-02-21T07:02:16;2.75;;;1.33;;
27792;SDS011;15174;48.190;11.462;2024-02-21T07:04:42;1.77;;;1.00;;
27792;SDS011;15174;48.190;11.462;2024-02-21T07:07:08;1.10;;;1.00;;
27792;SDS011;15174;48.190;11.462;2024-02-21T07:09:34;1.35;;;1.25;;
27792;SDS011;15174;48.190;11.462;2024-02-21T07:12:00;2.30;;;1.58;;
27792;SDS011;15174;48.190;11.462;2024-02-21T07:14:29;7.63;;;1.50;;
27792;SDS011;15174;48.190;11.462;2024-02-21T07:16:57;4.57;;;1.95;;
27792;SDS011;15174;48.190;11.462;2024-02-21T07:19:23;4.70;;;2.08;;
27792;SDS011;15174;48.190;11.462;2024-02-21T07:21:48;4.68;;;1.90;;
27792;SDS011;15174;48.190;11.462;2024-02-21T07:24:14;8.90;;;1.95;;
27792;SDS011;15174;48.190;11.462;2024-02-21T07:26:43;1.98;;;0.95;;
27792;SDS011;15174;48.190;11.462;2024-02-21T07:29:09;3.08;;;1.00;;
27792;SDS011;15174;48.190;11.462;2024-02-21T07:31:41;3.00;;;1.48;;
27792;SDS011;15174;48.190;11.462;2024-02-21T07:34:08;2.75;;;1.30;;
27792;SDS011;15174;48.190;11.462;2024-02-21T07:36:34;7.88;;;1.40;;
27792;SDS011;15174;48.190;11.462;2024-02-21T07:39:00;8.40;;;1.10;;
27792;SDS011;15174;48.190;11.462;2024-02-21T07:41:25;1.25;;;0.77;;
27792;SDS011;15174;48.190;11.462;2024-02-21T07:43:51;4.15;;;1.00;;
27792;SDS011;15174;48.190;11.462;2024-02-21T07:46:18;5.75;;;1.23;;
27792;SDS011;15174;48.190;11.462;2024-02-21T07:48:48;1.27;;;0.90;;
27792;SDS011;15174;48.190;11.462;2024-02-21T07:51:14;1.40;;;0.75;;
27792;SDS011;15174;48.190;11.462;2024-02-21T07:53:43;1.73;;;0.50;;
27792;SDS011;15174;48.190;11.462;2024-02-21T07:56:10;1.55;;;1.20;;
27792;SDS011;15174;48.190;11.462;2024-02-21T07:58:36;1.20;;;0.60;;
27792;SDS011;15174;48.190;11.462;2024-02-21T08:01:02;3.22;;;1.05;;
27792;SDS011;15174;48.190;11.462;2024-02-21T08:03:28;1.35;;;0.70;;
27792;SDS011;15174;48.190;11.462;2024-02-21T08:05:54;5.65;;;1.02;;
27792;SDS011;15174;48.190;11.462;2024-02-21T08:08:20;0.60;;;0.40;;
27792;SDS011;15174;48.190;11.462;2024-02-21T08:10:47;2.67;;;0.60;;
27792;SDS011;15174;48.190;11.462;2024-02-21T08:13:13;1.00;;;0.68;;
27792;SDS011;15174;48.190;11.462;2024-02-21T08:15:40;1.02;;;0.63;;
27792;SDS011;15174;48.190;11.462;2024-02-21T08:20:34;3.55;;;0.70;;
27792;SDS011;15174;48.190;11.462;2024-02-21T08:23:00;3.35;;;0.95;;
27792;SDS011;15174;48.190;11.462;2024-02-21T08:25:26;1.83;;;0.50;;
27792;SDS011;15174;48.190;11.462;2024-02-21T08:27:57;2.55;;;0.80;;
27792;SDS011;15174;48.190;11.462;2024-02-21T08:30:23;2.88;;;1.08;;
27792;SDS011;15174;48.190;11.462;2024-02-21T08:32:49;2.58;;;0.68;;
27792;SDS011;15174;48.190;11.462;2024-02-21T08:35:15;1.52;;;0.82;;
27792;SDS011;15174;48.190;11.462;2024-02-21T08:37:44;1.95;;;0.70;;
27792;SDS011;15174;48.190;11.462;2024-02-21T08:40:13;1.52;;;0.68;;
27792;SDS011;15174;48.190;11.462;2024-02-21T08:42:42;3.55;;;0.90;;
27792;SDS011;15174;48.190;11.462;2024-02-21T08:45:09;2.03;;;0.57;;
27792;SDS011;15174;48.190;11.462;2024-02-21T08:47:35;0.75;;;0.50;;
27792;SDS011;15174;48.190;11.462;2024-02-21T08:50:01;5.70;;;0.90;;
27792;SDS011;15174;48.190;11.462;2024-02-21T08:52:28;4.65;;;0.45;;
27792;SDS011;15174;48.190;11.462;2024-02-21T08:54:54;1.00;;;0.63;;
27792;SDS011;15174;48.190;11.462;2024-02-21T08:57:20;1.67;;;0.98;;
27792;SDS011;15174;48.190;11.462;2024-02-21T08:59:46;2.05;;;1.00;;
27792;SDS011;15174;48.190;11.462;2024-02-21T09:02:12;0.80;;;0.63;;
27792;SDS011;15174;48.190;11.462;2024-02-21T09:04:38;1.15;;;0.60;;
27792;SDS011;15174;48.190;11.462;2024-02-21T09:07:04;3.92;;;0.95;;
27792;SDS011;15174;48.190;11.462;2024-02-21T09:09:30;1.25;;;0.70;;
27792;SDS011;15174;48.190;11.462;2024-02-21T09:11:58;1.90;;;0.75;;
27792;SDS011;15174;48.190;11.462;2024-02-21T09:14:30;4.63;;;2.42;;
27792;SDS011;15174;48.190;11.462;2024-02-21T09:16:57;2.08;;;1.00;;
27792;SDS011;15174;48.190;11.462;2024-02-21T09:19:23;7.82;;;0.68;;
27792;SDS011;15174;48.190;11.462;2024-02-21T09:21:49;4.82;;;0.75;;
27792;SDS011;15174;48.190;11.462;2024-02-21T09:24:15;1.13;;;0.80;;
27792;SDS011;15174;48.190;11.462;2024-02-21T09:26:41;1.98;;;0.98;;
27792;SDS011;15174;48.190;11.462;2024-02-21T09:29:07;1.38;;;0.57;;
27792;SDS011;15174;48.190;11.462;2024-02-21T09:31:33;0.63;;;0.50;;
27792;SDS011;15174;48.190;11.462;2024-02-21T09:33:59;0.88;;;0.43;;
27792;SDS011;15174;48.190;11.462;2024-02-21T09:36:26;3.67;;;0.70;;
27792;SDS011;15174;48.190;11.462;2024-02-21T09:38:52;1.45;;;0.52;;
27792;SDS011;15174;48.190;11.462;2024-02-21T09:41:25;2.13;;;1.30;;
27792;SDS011;15174;48.190;11.462;2024-02-21T09:43:51;1.60;;;0.60;;
27792;SDS011;15174;48.190;11.462;2024-02-21T09:46:19;9.60;;;1.42;;
27792;SDS011;15174;48.190;11.462;2024-02-21T09:48:50;2.30;;;0.82;;
27792;SDS011;15174;48.190;11.462;2024-02-21T09:51:18;1.83;;;0.82;;
27792;SDS011;15174;48.190;11.462;2024-02-21T09:53:44;1.92;;;0.80;;
27792;SDS011;15174;48.190;11.462;2024-02-21T09:56:11;2.50;;;0.50;;
27792;SDS011;15174;48.190;11.462;2024-02-21T09:58:38;0.95;;;0.57;;
27792;SDS011;15174;48.190;11.462;2024-02-21T10:01:06;1.42;;;0.93;;
27792;SDS011;15174;48.190;11.462;2024-02-21T10:03:32;2.20;;;0.80;;
27792;SDS011;15174;48.190;11.462;2024-02-21T10:05:59;1.38;;;0.88;;
27792;SDS011;15174;48.190;11.462;2024-02-21T10:08:26;3.28;;;1.00;;
27792;SDS011;15174;48.190;11.462;2024-02-21T10:10:52;3.05;;;1.10;;
27792;SDS011;15174;48.190;11.462;2024-02-21T10:13:27;1.77;;;0.88;;
27792;SDS011;15174;48.190;11.462;2024-02-21T10:16:06;4.03;;;0.88;;
27792;SDS011;15174;48.190;11.462;2024-02-21T10:18:33;3.13;;;1.35;;
27792;SDS011;15174;48.190;11.462;2024-02-21T10:21:06;1.52;;;1.00;;
27792;SDS011;15174;48.190;11.462;2024-02-21T10:23:45;2.10;;;1.05;;
27792;SDS011;15174;48.190;11.462;2024-02-21T10:26:11;0.80;;;0.50;;
27792;SDS011;15174;48.190;11.462;2024-02-21T10:28:38;1.83;;;0.52;;
27792;SDS011;15174;48.190;11.462;2024-02-21T10:31:07;1.80;;;0.43;;
27792;SDS011;15174;48.190;11.462;2024-02-21T10:33:34;1.30;;;0.55;;
27792;SDS011;15174;48.190;11.462;2024-02-21T10:36:09;2.10;;;0.60;;
27792;SDS011;15174;48.190;11.462;2024-02-21T10:38:36;1.33;;;0.20;;
27792;SDS011;15174;48.190;11.462;2024-02-21T10:41:04;2.13;;;0.70;;
27792;SDS011;15174;48.190;11.462;2024-02-21T10:43:30;3.00;;;0.53;;
27792;SDS011;15174;48.190;11.462;2024-02-21T10:45:58;2.53;;;0.52;;
27792;SDS011;15174;48.190;11.462;2024-02-21T10:48:29;1.17;;;0.47;;
27792;SDS011;15174;48.190;11.462;2024-02-21T10:50:59;2.00;;;0.50;;
27792;SDS011;15174;48.190;11.462;2024-02-21T10:56:01;0.80;;;0.30;;
27792;SDS011;15174;48.190;11.462;2024-02-21T10:58:33;1.98;;;0.52;;
27792;SDS011;15174;48.190;11.462;2024-02-21T11:00:59;1.90;;;0.45;;
27792;SDS011;15174;48.190;11.462;2024-02-21T11:03:26;1.42;;;0.40;;
27792;SDS011;15174;48.190;11.462;2024-02-21T11:05:52;2.10;;;0.45;;
27792;SDS011;15174;48.190;11.462;2024-02-21T11:08:18;1.38;;;0.47;;
27792;SDS011;15174;48.190;11.462;2024-02-21T11:10:45;0.90;;;0.43;;
27792;SDS011;15174;48.190;11.462;2024-02-21T11:13:12;0.75;;;0.30;;
27792;SDS011;15174;48.190;11.462;2024-02-21T11:15:39;4.73;;;1.13;;
27792;SDS011;15174;48.190;11.462;2024-02-21T11:18:05;0.77;;;0.30;;
27792;SDS011;15174;48.190;11.462;2024-02-21T11:20:31;1.10;;;0.30;;
27792;SDS011;15174;48.190;11.462;2024-02-21T11:22:58;0.90;;;0.47;;
27792;SDS011;15174;48.190;11.462;2024-02-21T11:25:26;0.40;;;0.20;;
27792;SDS011;15174;48.190;11.462;2024-02-21T11:27:59;0.55;;;0.20;;
27792;SDS011;15174;48.190;11.462;2024-02-21T11:30:31;5.00;;;0.38;;
27792;SDS011;15174;48.190;11.462;2024-02-21T11:33:05;1.90;;;0.60;;
27792;SDS011;15174;48.190;11.462;2024-02-21T11:35:33;0.30;;;0.30;;
27792;SDS011;15174;48.190;11.462;2024-02-21T11:38:09;1.23;;;0.50;;
27792;SDS011;15174;48.190;11.462;2024-02-21T11:40:38;2.42;;;0.50;;
27792;SDS011;15174;48.190;11.462;2024-02-21T11:43:05;3.88;;;0.30;;
27792;SDS011;15174;48.190;11.462;2024-02-21T11:45:31;0.47;;;0.20;;
27792;SDS011;15174;48.190;11.462;2024-02-21T11:47:58;2.08;;;0.40;;
27792;SDS011;15174;48.190;11.462;2024-02-21T11:50:31;1.17;;;0.43;;
27792;SDS011;15174;48.190;11.462;2024-02-21T11:52:57;2.05;;;0.40;;
27792;SDS011;15174;48.190;11.462;2024-02-21T11:55:23;1.08;;;0.40;;
27792;SDS011;15174;48.190;11.462;2024-02-21T11:57:49;3.60;;;0.80;;
27792;SDS011;15174;48.190;11.462;2024-02-21T12:00:16;1.15;;;0.60;;
27792;SDS011;15174;48.190;11.462;2024-02-21T12:02:43;1.13;;;0.57;;
27792;SDS011;15174;48.190;11.462;2024-02-21T12:05:12;3.90;;;0.65;;
27792;SDS011;15174;48.190;11.462;2024-02-21T12:07:39;1.40;;;0.60;;
27792;SDS011;15174;48.190;11.462;2024-02-21T12:10:09;0.80;;;0.40;;
27792;SDS011;15174;48.190;11.462;2024-02-21T12:12:36;0.75;;;0.30;;
27792;SDS011;15174;48.190;11.462;2024-02-21T12:15:03;1.15;;;0.47;;
27792;SDS011;15174;48.190;11.462;2024-02-21T12:17:30;0.50;;;0.30;;
27792;SDS011;15174;48.190;11.462;2024-02-21T12:19:56;1.40;;;0.40;;
27792;SDS011;15174;48.190;11.462;2024-02-21T12:22:22;0.55;;;0.30;;
27792;SDS011;15174;48.190;11.462;2024-02-21T12:24:48;0.85;;;0.55;;
27792;SDS011;15174;48.190;11.462;2024-02-21T12:27:15;0.45;;;0.22;;
27792;SDS011;15174;48.190;11.462;2024-02-21T12:29:42;0.52;;;0.35;;
27792;SDS011;15174;48.190;11.462;2024-02-21T12:32:08;1.07;;;0.50;;
27792;SDS011;15174;48.190;11.462;2024-02-21T12:34:34;0.80;;;0.43;;
27792;SDS011;15174;48.190;11.462;2024-02-21T12:37:01;4.07;;;0.40;;
27792;SDS011;15174;48.190;11.462;2024-02-21T12:39:30;1.37;;;0.63;;
27792;SDS011;15174;48.190;11.462;2024-02-21T12:41:56;1.73;;;0.28;;
27792;SDS011;15174;48.190;11.462;2024-02-21T12:44:23;1.08;;;0.55;;
27792;SDS011;15174;48.190;11.462;2024-02-21T12:46:49;0.85;;;0.60;;
27792;SDS011;15174;48.190;11.462;2024-02-21T12:49:17;0.88;;;0.60;;
27792;SDS011;15174;48.190;11.462;2024-02-21T12:51:44;2.47;;;0.60;;
27792;SDS011;15174;48.190;11.462;2024-02-21T12:54:11;0.80;;;0.50;;
27792;SDS011;15174;48.190;11.462;2024-02-21T12:56:38;0.50;;;0.40;;
27792;SDS011;15174;48.190;11.462;2024-02-21T12:59:05;6.80;;;0.87;;
27792;SDS011;15174;48.190;11.462;2024-02-21T13:01:34;4.72;;;0.60;;
27792;SDS011;15174;48.190;11.462;2024-02-21T13:04:01;4.03;;;0.63;;
27792;SDS011;15174;48.190;11.462;2024-02-21T13:06:28;0.57;;;0.38;;
27792;SDS011;15174;48.190;11.462;2024-02-21T13:08:56;2.85;;;0.28;;
27792;SDS011;15174;48.190;11.462;2024-02-21T13:11:22;0.60;;;0.40;;
27792;SDS011;15174;48.190;11.462;2024-02-21T13:13:51;5.60;;;1.27;;
27792;SDS011;15174;48.190;11.462;2024-02-21T13:16:18;1.88;;;1.00;;
27792;SDS011;15174;48.190;11.462;2024-02-21T13:18:44;4.05;;;1.23;;
27792;SDS011;15174;48.190;11.462;2024-02-21T13:21:12;1.63;;;0.65;;
27792;SDS011;15174;48.190;11.462;2024-02-21T13:23:39;2.40;;;0.50;;
27792;SDS011;15174;48.190;11.462;2024-02-21T13:26:05;2.95;;;1.13;;
27792;SDS011;15174;48.190;11.462;2024-02-21T13:28:31;1.25;;;0.90;;
27792;SDS011;15174;48.190;11.462;2024-02-21T13:30:57;0.30;;;0.30;;
27792;SDS011;15174;48.190;11.462;2024-02-21T13:33:23;3.95;;;0.70;;
27792;SDS011;15174;48.190;11.462;2024-02-21T13:35:49;3.55;;;0.70;;
27792;SDS011;15174;48.190;11.462;2024-02-21T13:38:16;1.63;;;0.70;;
27792;SDS011;15174;48.190;11.462;2024-02-21T13:40:43;3.50;;;0.88;;
27792;SDS011;15174;48.190;11.462;2024-02-21T13:43:10;1.33;;;0.45;;
27792;SDS011;15174;48.190;11.462;2024-02-21T13:45:36;3.42;;;0.77;;
27792;SDS011;15174;48.190;11.462;2024-02-21T13:48:06;1.77;;;0.93;;
27792;SDS011;15174;48.190;11.462;2024-02-21T13:50:35;0.60;;;0.50;;
27792;SDS011;15174;48.190;11.462;2024-02-21T13:53:07;7.50;;;1.38;;
27792;SDS011;15174;48.190;11.462;2024-02-21T13:55:35;2.38;;;1.13;;
27792;SDS011;15174;48.190;11.462;2024-02-21T13:58:01;4.35;;;0.98;;
27792;SDS011;15174;48.190;11.462;2024-02-21T14:00:28;2.03;;;0.80;;
27792;SDS011;15174;48.190;11.462;2024-02-21T14:02:54;2.60;;;0.95;;
27792;SDS011;15174;48.190;11.462;2024-02-21T14:05:20;0.73;;;0.60;;
27792;SDS011;15174;48.190;11.462;2024-02-21T14:07:46;0.50;;;0.50;;
27792;SDS011;15174;48.190;11.462;2024-02-21T14:10:12;1.05;;;0.40;;
27792;SDS011;15174;48.190;11.462;2024-02-21T14:12:38;4.88;;;0.90;;
27792;SDS011;15174;48.190;11.462;2024-02-21T14:15:05;4.93;;;0.73;;
27792;SDS011;15174;48.190;11.462;2024-02-21T14:17:31;3.92;;;1.80;;
27792;SDS011;15174;48.190;11.462;2024-02-21T14:19:57;3.42;;;1.70;;
27792;SDS011;15174;48.190;11.462;2024-02-21T14:22:24;2.38;;;1.13;;
27792;SDS011;15174;48.190;11.462;2024-02-21T14:24:50;1.25;;;0.50;;
27792;SDS011;15174;48.190;11.462;2024-02-21T14:27:16;2.72;;;0.75;;
27792;SDS011;15174;48.190;11.462;2024-02-21T14:29:42;1.35;;;0.57;;
27792;SDS011;15174;48.190;11.462;2024-02-21T14:32:09;7.65;;;1.00;;
27792;SDS011;15174;48.190;11.462;2024-02-21T14:34:35;6.20;;;0.80;;
27792;SDS011;15174;48.190;11.462;2024-02-21T14:37:01;0.90;;;0.52;;